| Date | Time | Temp. (oF) | Dew Point (oF) | Rel. Hum. (%) | Press. (in.) | Wind Dir. | Wind Speed (mph) | Hourly Rainfall (in.) |
|
|---|---|---|---|---|---|---|---|---|---|
| 1 | 10/05 | 00:00 | 68 | 67 | 97 | 30.33 | ENE | 2 | 0.00 |
| 2 | 10/04 | 23:00 | 69 | 67 | 96 | 30.33 | E | 3 | 0.00 |
| 3 | miss | miss | miss | miss | miss | miss | miss | miss | |
| 4 | 10/04 | 22:03 | 69 | 67 | 94 | 30.32 | E | 4 | 0.00 |
| 5 | miss | miss | miss | miss | miss | miss | miss | miss | |
| 6 | 10/04 | 22:01 | 69 | 66 | 93 | 30.32 | E | 1 | 0.00 |
| 7 | miss | miss | miss | miss | miss | miss | miss | miss | |
| 8 | 10/04 | 21:59 | 69 | 66 | 93 | 30.32 | E | 2 | 0.00 |
| 9 | 10/04 | 21:58 | 69 | 66 | 93 | 30.32 | ESE | 1 | 0.00 |
| 10 | 10/04 | 21:57 | 69 | 66 | 93 | 30.32 | E | 1 | 0.00 |
| 11 | 10/04 | 21:56 | 69 | 66 | 93 | 30.32 | E | 2 | 0.00 |
| 12 | 10/04 | 21:55 | 69 | 66 | 93 | 30.32 | ENE | 1 | 0.00 |
| 13 | miss | miss | miss | miss | miss | miss | miss | miss | |
| 14 | 10/04 | 21:53 | 69 | 66 | 93 | 30.32 | E | 1 | 0.00 |
| 15 | miss | miss | miss | miss | miss | miss | miss | miss | |
| 16 | 10/04 | 21:51 | 69 | 66 | 93 | 30.32 | E | 1 | 0.00 |
| 17 | miss | miss | miss | miss | miss | miss | miss | miss | |
| 18 | 10/04 | 21:49 | 69 | 66 | 93 | 30.32 | ESE | 1 | 0.00 |
| 19 | miss | miss | miss | miss | miss | miss | miss | miss | |
| 20 | 10/04 | 21:47 | 69 | 66 | 93 | 30.32 | ESE | 1 | 0.00 |
| 21 | miss | miss | miss | miss | miss | miss | miss | miss | |
| 22 | 10/04 | 21:45 | 69 | 66 | 93 | 30.32 | E | 2 | 0.00 |
| 23 | miss | miss | miss | miss | miss | miss | miss | miss | |
| 24 | 10/04 | 21:43 | 69 | 66 | 93 | 30.32 | E | 2 | 0.00 |
| 25 | miss | miss | miss | miss | miss | miss | miss | miss | |
| 26 | 10/04 | 21:42 | 69 | 66 | 93 | 30.32 | E | 1 | 0.00 |
| 27 | miss | miss | miss | miss | miss | miss | miss | miss | |
| 28 | 10/04 | 21:00 | 70 | 67 | 92 | 30.32 | ESE | 1 | 0.00 |
| 29 | 10/04 | 20:00 | 71 | 67 | 90 | 30.31 | E | 2 | 0.00 |
| 30 | 10/04 | 19:00 | 72 | 67 | 86 | 30.30 | S | 0 | 0.00 |
| 31 | 10/04 | 18:00 | 74 | 68 | 82 | 30.30 | SSE | 3 | 0.00 |
| 32 | 10/04 | 17:00 | 76 | 67 | 76 | 30.30 | E | 3 | 0.00 |
| 33 | 10/04 | 16:00 | 77 | 65 | 68 | 30.30 | ESE | 1 | 0.00 |
| 34 | 10/04 | 15:00 | 78 | 64 | 64 | 30.31 | NE | 2 | 0.00 |
| 35 | 10/04 | 14:00 | 78 | 63 | 62 | 30.33 | ENE | 4 | 0.00 |
| 36 | 10/04 | 13:00 | 75 | 64 | 71 | 30.36 | ENE | 2 | 0.00 |
| 37 | 10/04 | 12:00 | 70 | 65 | 85 | 30.39 | N | 7 | 0.00 |
| 38 | 10/04 | 11:00 | 66 | 64 | 96 | 30.40 | NE | 4 | 0.00 |
| 39 | 10/04 | 10:00 | 63 | 63 | 100 | 30.41 | NE | 3 | 0.00 |
| 40 | 10/04 | 09:00 | 62 | 62 | 100 | 30.40 | ENE | 4 | 0.00 |
| 41 | 10/04 | 08:00 | 61 | 60 | 100 | 30.40 | NNE | 2 | 0.00 |
| 42 | 10/04 | 07:00 | 59 | 59 | 100 | 30.39 | E | 0 | 0.00 |
| 43 | 10/04 | 06:00 | 58 | 58 | 100 | 30.38 | ESE | 0 | 0.00 |
| 44 | 10/04 | 05:00 | 58 | 58 | 100 | 30.38 | ESE | 0 | 0.00 |
| 45 | 10/04 | 04:00 | 57 | 57 | 100 | 30.37 | N | 2 | 0.00 |
| 46 | 10/04 | 03:00 | 55 | 53 | 96 | 30.37 | NNE | 0 | 0.00 |
| 47 | 10/04 | 02:00 | 55 | 53 | 94 | 30.38 | N | 0 | 0.00 |
| 48 | 10/04 | 01:00 | 56 | 53 | 91 | 30.38 | NNE | 0 | 0.00 |
| 49 | 10/04 | 00:00 | 57 | 53 | 88 | 30.38 | NNE | 0 | 0.00 |
| 50 | 10/03 | 23:00 | 59 | 54 | 84 | 30.38 | SE | 0 | 0.00 |
| 51 | 10/03 | 22:00 | 61 | 53 | 76 | 30.37 | SE | 0 | 0.00 |
| 52 | 10/03 | 21:00 | 64 | 53 | 68 | 30.36 | SE | 0 | 0.00 |
| 53 | 10/03 | 20:00 | 68 | 52 | 57 | 30.35 | SE | 0 | 0.00 |
| 54 | 10/03 | 19:00 | 74 | 51 | 46 | 30.33 | E | 2 | 0.00 |
| 55 | 10/03 | 18:00 | 78 | 52 | 41 | 30.32 | ESE | 1 | 0.00 |
| 56 | 10/03 | 17:00 | 80 | 51 | 38 | 30.32 | SE | 2 | 0.00 |
| 57 | 10/03 | 16:00 | 80 | 51 | 37 | 30.33 | S | 2 | 0.00 |
| 58 | 10/03 | 15:00 | 79 | 54 | 43 | 30.34 | SSE | 6 | 0.00 |
| 59 | 10/03 | 14:00 | 79 | 58 | 49 | 30.36 | ESE | 7 | 0.00 |
| 60 | 10/03 | 13:00 | 77 | 57 | 52 | 30.39 | SSE | 1 | 0.00 |
| 61 | 10/03 | 12:00 | 75 | 57 | 54 | 30.41 | SSE | 2 | 0.00 |
| 62 | 10/03 | 11:00 | 70 | 59 | 70 | 30.43 | SSE | 1 | 0.00 |
| 63 | 10/03 | 10:00 | 62 | 59 | 90 | 30.43 | E | 0 | 0.00 |
| 64 | 10/03 | 09:00 | 54 | 54 | 100 | 30.43 | SE | 0 | 0.00 |
| 65 | 10/03 | 08:00 | 49 | 49 | 100 | 30.42 | SSE | 0 | 0.00 |
| 66 | 10/03 | 07:00 | 49 | 48 | 99 | 30.41 | SSE | 0 | 0.00 |
| 67 | 10/03 | 06:00 | 50 | 49 | 98 | 30.39 | SSE | 0 | 0.00 |
| 68 | 10/03 | 05:00 | 51 | 50 | 98 | 30.38 | SSE | 0 | 0.00 |
| 69 | 10/03 | 04:00 | 53 | 51 | 96 | 30.38 | SE | 0 | 0.00 |
| 70 | 10/03 | 03:00 | 54 | 52 | 95 | 30.39 | ENE | 0 | 0.00 |
| 71 | 10/03 | 02:00 | 56 | 54 | 94 | 30.39 | ENE | 0 | 0.00 |
| 72 | 10/03 | 01:00 | 57 | 54 | 93 | 30.38 | ENE | 0 | 0.00 |
| 73 | 10/03 | 00:00 | 58 | 55 | 90 | 30.38 | E | 0 | 0.00 |